createdAt,value
2023-02-19T00:01:43.458Z,8.37
2023-02-19T00:04:14.701Z,8.37
2023-02-19T00:06:42.425Z,8.35
2023-02-19T00:09:11.887Z,8.36
2023-02-19T00:11:39.227Z,8.34
2023-02-19T00:14:06.259Z,8.31
2023-02-19T00:16:38.319Z,8.30
2023-02-19T00:19:07.581Z,8.33
2023-02-19T00:21:34.753Z,8.31
2023-02-19T00:24:04.024Z,8.30
2023-02-19T00:26:31.300Z,8.29
2023-02-19T00:28:59.246Z,8.29
2023-02-19T00:31:34.073Z,8.27
2023-02-19T00:34:04.148Z,8.32
2023-02-19T00:36:32.227Z,8.31
2023-02-19T00:38:58.912Z,8.33
2023-02-19T00:41:25.618Z,8.31
2023-02-19T00:43:59.325Z,8.35
2023-02-19T00:46:29.138Z,8.35
2023-02-19T00:48:56.536Z,8.26
2023-02-19T00:51:26.002Z,8.34
2023-02-19T00:53:52.681Z,8.37
2023-02-19T00:56:19.529Z,8.37
2023-02-19T00:58:46.657Z,8.40
2023-02-19T01:01:13.741Z,8.41
2023-02-19T01:03:41.137Z,8.39
2023-02-19T01:06:10.793Z,8.38
2023-02-19T01:08:37.770Z,8.38
2023-02-19T01:11:05.769Z,8.34
2023-02-19T01:13:33.155Z,8.31
2023-02-19T01:16:08.141Z,8.33
2023-02-19T01:18:35.688Z,8.35
2023-02-19T01:21:12.724Z,8.39
2023-02-19T01:23:39.802Z,8.37
2023-02-19T01:26:13.030Z,8.32
2023-02-19T01:28:39.706Z,8.28
2023-02-19T01:31:09.430Z,8.25
2023-02-19T01:33:36.271Z,8.15
2023-02-19T01:36:04.528Z,8.13
2023-02-19T01:38:31.192Z,8.15
2023-02-19T01:41:00.121Z,8.16
2023-02-19T01:43:26.808Z,8.24
2023-02-19T01:45:55.450Z,8.31
2023-02-19T01:48:27.737Z,8.38
2023-02-19T01:51:14.834Z,8.44
2023-02-19T01:53:48.361Z,8.46
2023-02-19T01:56:17.367Z,8.48
2023-02-19T01:58:44.944Z,8.53
2023-02-19T02:01:12.040Z,8.57
2023-02-19T02:03:42.320Z,8.58
2023-02-19T02:06:28.504Z,8.58
2023-02-19T02:09:18.198Z,8.57
2023-02-19T02:11:51.849Z,8.59
2023-02-19T02:14:22.345Z,8.53
2023-02-19T02:17:13.019Z,8.54
2023-02-19T02:20:24.487Z,8.58
2023-02-19T02:23:00.010Z,8.57
2023-02-19T02:25:35.680Z,8.59
2023-02-19T02:28:28.507Z,8.56
2023-02-19T02:31:02.845Z,8.57
2023-02-19T02:33:47.873Z,8.55
2023-02-19T02:36:20.436Z,8.61
2023-02-19T02:38:48.447Z,8.60
2023-02-19T02:41:16.242Z,8.65
2023-02-19T02:43:43.045Z,8.66
2023-02-19T02:46:12.402Z,8.68
2023-02-19T02:48:54.197Z,8.70
2023-02-19T02:51:39.051Z,8.70
2023-02-19T02:54:33.343Z,8.71
2023-02-19T02:57:00.965Z,8.73
2023-02-19T02:59:32.389Z,8.71
2023-02-19T03:02:15.023Z,8.71
2023-02-19T03:05:11.112Z,8.74
2023-02-19T03:08:00.085Z,8.73
2023-02-19T03:10:34.611Z,8.72
2023-02-19T03:13:21.718Z,8.72
2023-02-19T03:16:13.199Z,8.73
2023-02-19T03:19:02.491Z,8.65
2023-02-19T03:21:29.329Z,8.67
2023-02-19T03:24:16.179Z,8.66
2023-02-19T03:26:45.687Z,8.62
2023-02-19T03:29:23.307Z,8.59
2023-02-19T03:31:55.051Z,8.61
2023-02-19T03:34:30.840Z,8.61
2023-02-19T03:37:26.918Z,8.57
2023-02-19T03:39:54.621Z,8.55
2023-02-19T03:42:41.088Z,8.53
2023-02-19T03:45:33.117Z,8.60
2023-02-19T03:48:18.127Z,8.62
2023-02-19T03:50:58.634Z,8.59
2023-02-19T03:53:34.607Z,8.60
2023-02-19T03:56:25.877Z,8.56
2023-02-19T03:58:56.890Z,8.45
2023-02-19T04:01:31.625Z,8.43
2023-02-19T04:04:27.353Z,8.40
2023-02-19T04:06:57.447Z,8.36
2023-02-19T04:09:31.174Z,8.37
2023-02-19T04:11:58.727Z,8.38
2023-02-19T04:14:35.638Z,8.41
2023-02-19T04:17:07.544Z,8.42
2023-02-19T04:19:38.101Z,8.45
2023-02-19T04:22:07.511Z,8.47
2023-02-19T04:24:54.213Z,8.48
2023-02-19T04:27:21.182Z,8.44
2023-02-19T04:29:47.868Z,8.44
2023-02-19T04:32:15.027Z,8.38
2023-02-19T04:34:41.694Z,8.40
2023-02-19T04:37:08.339Z,8.35
2023-02-19T04:39:35.469Z,8.38
2023-02-19T04:42:02.173Z,8.34
2023-02-19T04:44:28.869Z,8.33
2023-02-19T04:46:55.925Z,8.30
2023-02-19T04:49:22.888Z,8.33
2023-02-19T04:51:49.479Z,8.30
2023-02-19T04:54:16.267Z,8.31
2023-02-19T04:56:43.053Z,8.32
2023-02-19T04:59:10.133Z,8.33
2023-02-19T05:01:36.986Z,8.32
2023-02-19T05:04:05.007Z,8.31
2023-02-19T05:06:31.672Z,8.27
2023-02-19T05:08:59.029Z,8.31
2023-02-19T05:11:25.751Z,8.32
2023-02-19T05:13:52.315Z,8.29
2023-02-19T05:16:19.069Z,8.31
2023-02-19T05:18:47.245Z,8.33
2023-02-19T05:21:14.932Z,8.32
2023-02-19T05:23:42.479Z,8.29
2023-02-19T05:26:13.931Z,8.32
2023-02-19T05:28:40.539Z,8.31
2023-02-19T05:31:09.381Z,8.30
2023-02-19T05:33:38.044Z,8.26
2023-02-19T05:36:08.078Z,8.10
2023-02-19T05:38:35.249Z,8.18
2023-02-19T05:41:16.213Z,8.12
2023-02-19T05:43:45.372Z,8.12
2023-02-19T05:46:14.674Z,8.14
2023-02-19T05:48:41.908Z,8.15
2023-02-19T05:51:12.225Z,8.15
2023-02-19T05:53:39.689Z,8.11
2023-02-19T05:56:25.391Z,8.15
2023-02-19T05:58:53.495Z,8.13
2023-02-19T06:01:21.872Z,8.16
2023-02-19T06:03:48.679Z,8.14
2023-02-19T06:06:17.840Z,8.14
2023-02-19T06:08:45.112Z,8.08
2023-02-19T06:11:12.370Z,8.04
2023-02-19T06:13:39.361Z,8.07
2023-02-19T06:16:07.607Z,8.05
2023-02-19T06:18:35.165Z,8.05
2023-02-19T06:21:06.504Z,8.07
2023-02-19T06:23:33.830Z,8.11
2023-02-19T06:26:14.474Z,8.14
2023-02-19T06:28:42.329Z,8.17
2023-02-19T06:31:09.969Z,8.13
2023-02-19T06:33:40.646Z,8.15
2023-02-19T06:36:11.872Z,8.16
2023-02-19T06:38:38.692Z,8.19
2023-02-19T06:41:07.319Z,8.22
2023-02-19T06:43:34.706Z,8.22
2023-02-19T06:46:04.062Z,8.23
2023-02-19T06:48:32.022Z,8.24
2023-02-19T06:50:59.097Z,8.23
2023-02-19T06:53:25.726Z,8.23
2023-02-19T06:56:06.412Z,8.27
2023-02-19T06:58:34.112Z,8.34
2023-02-19T07:01:01.032Z,8.37
2023-02-19T07:03:28.053Z,8.42
2023-02-19T07:05:54.827Z,8.46
2023-02-19T07:08:21.780Z,8.48
2023-02-19T07:10:56.889Z,8.55
2023-02-19T07:13:24.884Z,8.55
2023-02-19T07:15:52.348Z,8.60
2023-02-19T07:18:19.279Z,8.63
2023-02-19T07:20:46.091Z,8.57
2023-02-19T07:23:12.692Z,8.72
2023-02-19T07:25:39.778Z,8.78
2023-02-19T07:28:07.443Z,8.84
2023-02-19T07:30:34.551Z,8.85
2023-02-19T07:33:01.624Z,8.91
2023-02-19T07:35:28.707Z,9.00
2023-02-19T07:37:55.356Z,9.05
2023-02-19T07:40:22.417Z,9.06
2023-02-19T07:42:49.057Z,9.17
2023-02-19T07:45:15.965Z,9.24
2023-02-19T07:47:43.629Z,9.29
2023-02-19T07:50:11.841Z,9.29
2023-02-19T07:52:39.687Z,9.34
2023-02-19T07:55:07.060Z,9.36
2023-02-19T07:57:33.681Z,9.32
2023-02-19T08:00:00.573Z,9.36
2023-02-19T08:02:45.942Z,9.32
2023-02-19T08:05:13.891Z,9.24
2023-02-19T08:07:40.661Z,9.32
2023-02-19T08:10:26.400Z,9.31
2023-02-19T08:13:19.340Z,9.27
2023-02-19T08:15:55.134Z,9.24
2023-02-19T08:18:27.769Z,9.18
2023-02-19T08:20:55.601Z,9.14
2023-02-19T08:23:23.245Z,9.14
2023-02-19T08:25:51.704Z,9.09
2023-02-19T08:28:19.741Z,9.10
2023-02-19T08:30:47.560Z,9.10
2023-02-19T08:33:18.051Z,9.14
2023-02-19T08:35:45.045Z,9.18
2023-02-19T08:38:13.397Z,9.21
2023-02-19T08:40:40.748Z,9.23
2023-02-19T08:43:12.946Z,9.19
2023-02-19T08:45:41.513Z,9.10
2023-02-19T08:48:08.967Z,9.17
2023-02-19T08:50:36.410Z,9.19
2023-02-19T08:53:03.981Z,9.18
2023-02-19T08:55:30.743Z,9.18
2023-02-19T08:57:57.687Z,9.21
2023-02-19T09:00:24.485Z,9.26
2023-02-19T09:02:51.167Z,9.38
2023-02-19T09:05:17.967Z,9.52
2023-02-19T09:07:44.585Z,9.69
2023-02-19T09:10:13.261Z,9.84
2023-02-19T09:12:41.230Z,10.01
2023-02-19T09:15:08.586Z,10.16
2023-02-19T09:17:35.684Z,10.15
2023-02-19T09:20:02.380Z,10.27
2023-02-19T09:22:28.990Z,10.28
2023-02-19T09:24:55.765Z,10.33
2023-02-19T09:27:22.552Z,10.39
2023-02-19T09:29:49.133Z,10.49
2023-02-19T09:32:17.156Z,10.55
2023-02-19T09:34:45.909Z,10.55
2023-02-19T09:37:12.512Z,10.60
2023-02-19T09:39:39.232Z,10.58
2023-02-19T09:42:30.816Z,10.58
2023-02-19T09:45:00.397Z,10.57
2023-02-19T09:47:31.494Z,10.59
2023-02-19T09:50:05.609Z,10.63
2023-02-19T09:52:41.230Z,10.69
2023-02-19T09:55:17.986Z,10.73
2023-02-19T09:57:46.139Z,10.82
2023-02-19T10:00:19.314Z,10.91
2023-02-19T10:02:45.972Z,10.86
2023-02-19T10:05:16.983Z,10.90
2023-02-19T10:07:47.961Z,10.93
2023-02-19T10:10:14.501Z,10.88
2023-02-19T10:12:50.888Z,10.78
2023-02-19T10:15:20.724Z,10.94
2023-02-19T10:17:47.580Z,10.99
2023-02-19T10:20:27.979Z,11.04
2023-02-19T10:23:03.393Z,11.08
2023-02-19T10:25:32.206Z,11.12
2023-02-19T10:28:00.225Z,11.19
2023-02-19T10:30:33.491Z,11.18
2023-02-19T10:33:01.778Z,11.19
2023-02-19T10:35:30.027Z,11.22
2023-02-19T10:37:57.238Z,11.21
2023-02-19T10:40:27.775Z,11.17
2023-02-19T10:43:01.931Z,11.15
2023-02-19T10:45:31.559Z,11.10
2023-02-19T10:47:58.536Z,11.05
2023-02-19T10:50:39.541Z,10.95
2023-02-19T10:53:06.302Z,11.06
2023-02-19T10:55:37.902Z,11.07
2023-02-19T10:58:39.732Z,11.09
2023-02-19T11:01:28.445Z,11.13
2023-02-19T11:04:18.268Z,11.15
2023-02-19T11:06:46.906Z,11.07
2023-02-19T11:09:40.604Z,11.16
2023-02-19T11:12:09.216Z,11.13
2023-02-19T11:14:36.669Z,10.99
2023-02-19T11:17:05.993Z,11.11
2023-02-19T11:19:37.122Z,11.12
2023-02-19T11:22:34.019Z,11.09
2023-02-19T11:25:17.869Z,11.11
2023-02-19T11:28:07.408Z,11.09
2023-02-19T11:30:40.702Z,11.10
2023-02-19T11:33:16.708Z,11.17
2023-02-19T11:35:47.393Z,11.17
2023-02-19T11:38:16.434Z,11.24
2023-02-19T11:41:18.557Z,11.31
2023-02-19T11:43:53.031Z,11.37
2023-02-19T11:46:34.957Z,11.42
2023-02-19T11:49:07.956Z,11.40
2023-02-19T11:51:52.788Z,11.30
2023-02-19T11:54:40.102Z,11.40
2023-02-19T11:57:28.191Z,11.34
2023-02-19T12:00:03.871Z,11.41
2023-02-19T12:02:54.729Z,11.40
2023-02-19T12:05:27.271Z,11.38
2023-02-19T12:08:14.519Z,11.35
2023-02-19T12:11:08.385Z,11.33
2023-02-19T12:14:02.628Z,11.30
2023-02-19T12:16:45.356Z,11.28
2023-02-19T12:19:15.039Z,11.28
2023-02-19T12:22:00.736Z,11.18
2023-02-19T12:24:47.457Z,11.24
2023-02-19T12:27:44.065Z,11.25
2023-02-19T12:30:35.184Z,11.28
2023-02-19T12:33:35.800Z,11.30
2023-02-19T12:36:20.921Z,11.32
2023-02-19T12:39:06.484Z,11.30
2023-02-19T12:41:42.624Z,11.31
2023-02-19T12:44:18.460Z,11.31
2023-02-19T12:46:52.418Z,11.37
2023-02-19T12:49:37.614Z,11.35
2023-02-19T12:52:15.882Z,11.35
2023-02-19T12:54:46.971Z,11.40
2023-02-19T12:57:34.845Z,11.41
2023-02-19T13:00:32.005Z,11.34
2023-02-19T13:03:27.331Z,11.44
2023-02-19T13:06:04.439Z,11.48
2023-02-19T13:09:05.760Z,11.51
2023-02-19T13:11:44.909Z,11.45
2023-02-19T13:14:15.026Z,11.59
2023-02-19T13:16:48.946Z,11.54
2023-02-19T13:19:16.919Z,11.64
2023-02-19T13:22:08.570Z,11.65
2023-02-19T13:24:40.100Z,11.63
2023-02-19T13:27:30.092Z,11.62
2023-02-19T13:30:14.580Z,11.60
2023-02-19T13:33:01.292Z,11.59
2023-02-19T13:36:06.098Z,11.59
2023-02-19T13:38:38.285Z,11.55
2023-02-19T13:41:05.303Z,11.50
2023-02-19T13:43:39.294Z,11.39
2023-02-19T13:46:09.829Z,11.41
2023-02-19T13:48:38.710Z,11.34
2023-02-19T13:51:23.645Z,11.35
2023-02-19T13:53:56.401Z,11.30
2023-02-19T13:56:35.261Z,11.23
2023-02-19T13:59:10.875Z,11.16
2023-02-19T14:01:50.393Z,11.06
2023-02-19T14:04:40.552Z,10.97
2023-02-19T14:07:07.245Z,10.88
2023-02-19T14:09:37.010Z,10.80
2023-02-19T14:12:09.956Z,10.73
2023-02-19T14:14:50.485Z,10.63
2023-02-19T14:17:40.141Z,10.60
2023-02-19T14:20:09.939Z,10.56
2023-02-19T14:22:51.774Z,10.48
2023-02-19T14:25:27.887Z,10.38
2023-02-19T14:28:10.841Z,10.37
2023-02-19T14:30:59.439Z,10.33
2023-02-19T14:33:32.981Z,10.28
2023-02-19T14:37:00.750Z,10.23
2023-02-19T14:39:30.111Z,10.15
2023-02-19T14:42:00.103Z,10.03
2023-02-19T14:44:47.211Z,9.91
2023-02-19T14:47:18.567Z,9.81
2023-02-19T14:49:50.884Z,9.73
2023-02-19T14:52:43.607Z,9.72
2023-02-19T14:55:16.617Z,9.66
2023-02-19T14:57:50.296Z,9.62
2023-02-19T15:00:23.146Z,9.58
2023-02-19T15:02:51.745Z,9.54
2023-02-19T15:05:49.565Z,9.50
2023-02-19T15:08:24.803Z,9.50
2023-02-19T15:10:52.128Z,9.40
2023-02-19T15:13:25.866Z,9.30
2023-02-19T15:15:53.093Z,9.25
2023-02-19T15:18:23.465Z,9.24
2023-02-19T15:20:51.705Z,9.28
2023-02-19T15:23:24.441Z,9.27
2023-02-19T15:25:51.882Z,9.24
2023-02-19T15:28:24.971Z,9.24
2023-02-19T15:31:07.720Z,9.24
2023-02-19T15:33:35.298Z,9.27
2023-02-19T15:36:06.884Z,9.27
2023-02-19T15:38:34.547Z,9.26
2023-02-19T15:41:01.555Z,9.19
2023-02-19T15:43:30.456Z,9.24
2023-02-19T15:46:04.681Z,9.16
2023-02-19T15:48:35.015Z,9.13
2023-02-19T15:51:10.268Z,9.06
2023-02-19T15:53:45.504Z,9.02
2023-02-19T15:56:28.462Z,9.00
2023-02-19T15:58:58.959Z,9.04
2023-02-19T16:01:28.506Z,9.04
2023-02-19T16:03:56.249Z,8.99
2023-02-19T16:06:25.157Z,9.03
2023-02-19T16:09:02.205Z,9.03
2023-02-19T16:11:35.882Z,9.03
2023-02-19T16:14:31.092Z,9.02
2023-02-19T16:17:15.993Z,9.02
2023-02-19T16:20:19.772Z,9.00
2023-02-19T16:22:47.042Z,8.91
2023-02-19T16:25:37.161Z,8.93
2023-02-19T16:28:35.291Z,8.93
2023-02-19T16:31:08.684Z,8.92
2023-02-19T16:33:48.387Z,8.99
2023-02-19T16:36:37.145Z,8.98
2023-02-19T16:39:07.144Z,8.98
2023-02-19T16:41:39.841Z,8.98
2023-02-19T16:44:22.091Z,8.97
2023-02-19T16:46:58.207Z,8.88
2023-02-19T16:49:25.125Z,8.90
2023-02-19T16:51:52.423Z,8.87
2023-02-19T16:54:19.333Z,8.80
2023-02-19T16:56:46.462Z,8.82
2023-02-19T16:59:13.067Z,8.82
2023-02-19T17:01:40.030Z,8.73
2023-02-19T17:04:10.709Z,8.73
2023-02-19T17:06:37.923Z,8.64
2023-02-19T17:09:07.126Z,8.57
2023-02-19T17:11:34.397Z,8.45
2023-02-19T17:14:02.196Z,8.43
2023-02-19T17:16:40.561Z,8.39
2023-02-19T17:19:14.488Z,8.40
2023-02-19T17:21:41.518Z,8.38
2023-02-19T17:24:08.253Z,8.30
2023-02-19T17:26:35.339Z,8.24
2023-02-19T17:29:05.876Z,8.27
2023-02-19T17:31:34.058Z,8.30
2023-02-19T17:34:01.852Z,8.26
2023-02-19T17:36:31.154Z,8.29
2023-02-19T17:39:02.515Z,8.27
2023-02-19T17:41:29.902Z,8.32
2023-02-19T17:43:56.974Z,8.33
2023-02-19T17:46:26.459Z,8.32
2023-02-19T17:48:53.744Z,8.32
2023-02-19T17:51:21.358Z,8.28
2023-02-19T17:53:48.075Z,8.27
2023-02-19T17:56:24.536Z,8.32
2023-02-19T17:58:52.028Z,8.31
2023-02-19T18:01:18.694Z,8.28
2023-02-19T18:03:45.512Z,8.32
2023-02-19T18:06:12.372Z,8.29
2023-02-19T18:08:39.371Z,8.24
2023-02-19T18:11:07.293Z,8.24
2023-02-19T18:13:33.960Z,8.20
2023-02-19T18:16:00.576Z,8.21
2023-02-19T18:18:27.435Z,8.06
2023-02-19T18:20:54.031Z,8.12
2023-02-19T18:23:20.756Z,8.07
2023-02-19T18:25:47.654Z,8.09
2023-02-19T18:28:15.207Z,8.03
2023-02-19T18:30:41.942Z,7.98
2023-02-19T18:33:11.091Z,7.96
2023-02-19T18:35:38.568Z,7.92
2023-02-19T18:38:05.812Z,7.94
2023-02-19T18:40:32.675Z,7.96
2023-02-19T18:42:59.694Z,7.93
2023-02-19T18:45:27.538Z,7.92
2023-02-19T18:47:54.357Z,7.91
2023-02-19T18:50:21.450Z,7.91
2023-02-19T18:52:48.133Z,7.97
2023-02-19T18:55:15.145Z,7.94
2023-02-19T18:57:41.968Z,7.97
2023-02-19T19:00:09.504Z,7.99
2023-02-19T19:02:48.758Z,7.96
2023-02-19T19:05:18.519Z,7.83
2023-02-19T19:07:45.316Z,7.68
2023-02-19T19:10:12.605Z,7.49
2023-02-19T19:12:39.511Z,7.32
2023-02-19T19:15:06.624Z,7.14
2023-02-19T19:17:33.471Z,6.98
2023-02-19T19:20:00.414Z,6.79
2023-02-19T19:22:27.457Z,6.75
2023-02-19T19:24:54.076Z,6.64
2023-02-19T19:27:21.164Z,6.59
2023-02-19T19:29:49.210Z,6.54
2023-02-19T19:32:15.861Z,6.40
2023-02-19T19:34:43.149Z,6.36
2023-02-19T19:37:10.294Z,6.27
2023-02-19T19:39:37.305Z,6.30
2023-02-19T19:42:04.483Z,6.28
2023-02-19T19:44:31.225Z,6.22
2023-02-19T19:46:57.835Z,6.23
2023-02-19T19:49:24.869Z,6.20
2023-02-19T19:51:51.874Z,6.17
2023-02-19T19:54:18.831Z,6.09
2023-02-19T19:56:47.579Z,6.12
2023-02-19T19:59:16.538Z,6.08
2023-02-19T20:01:50.894Z,6.10
2023-02-19T20:04:18.800Z,6.09
2023-02-19T20:06:45.494Z,5.98
2023-02-19T20:09:13.100Z,6.10
2023-02-19T20:11:52.097Z,6.11
2023-02-19T20:14:20.250Z,6.04
2023-02-19T20:16:47.651Z,6.02
2023-02-19T20:19:15.933Z,6.01
2023-02-19T20:21:51.224Z,5.90
2023-02-19T20:24:28.788Z,5.87
2023-02-19T20:27:00.336Z,5.85
2023-02-19T20:29:29.067Z,5.85
2023-02-19T20:31:59.616Z,5.81
2023-02-19T20:34:26.771Z,5.79
2023-02-19T20:36:53.502Z,5.81
2023-02-19T20:39:21.828Z,5.82
2023-02-19T20:41:51.181Z,5.82
2023-02-19T20:44:19.368Z,5.81
2023-02-19T20:46:48.305Z,5.81
2023-02-19T20:49:16.570Z,5.78
2023-02-19T20:51:52.046Z,5.86
2023-02-19T20:54:20.302Z,5.89
2023-02-19T20:56:48.409Z,5.86
2023-02-19T20:59:16.336Z,5.85
2023-02-19T21:01:43.781Z,5.85
2023-02-19T21:04:11.248Z,5.91
2023-02-19T21:06:41.592Z,5.86
2023-02-19T21:09:08.722Z,5.90
2023-02-19T21:11:35.615Z,5.85
2023-02-19T21:14:02.361Z,5.93
2023-02-19T21:16:30.789Z,5.87
2023-02-19T21:18:58.398Z,5.85
2023-02-19T21:21:26.323Z,5.84
2023-02-19T21:23:54.593Z,5.84
2023-02-19T21:26:22.195Z,5.89
2023-02-19T21:28:51.570Z,5.87
2023-02-19T21:31:19.484Z,5.92
2023-02-19T21:33:46.607Z,5.94
2023-02-19T21:36:13.436Z,5.98
2023-02-19T21:38:40.353Z,5.94
2023-02-19T21:41:07.068Z,5.89
2023-02-19T21:43:33.659Z,5.89
2023-02-19T21:46:00.434Z,5.89
2023-02-19T21:48:27.104Z,5.83
2023-02-19T21:50:53.832Z,5.79
2023-02-19T21:53:21.054Z,5.78
2023-02-19T21:55:58.248Z,5.74
2023-02-19T21:58:26.692Z,5.73
2023-02-19T22:00:54.194Z,5.77
2023-02-19T22:03:21.275Z,5.74
2023-02-19T22:05:48.386Z,5.75
2023-02-19T22:08:17.328Z,5.77
2023-02-19T22:10:44.123Z,5.75
2023-02-19T22:13:11.588Z,5.74
2023-02-19T22:15:38.209Z,5.78
2023-02-19T22:18:05.036Z,5.74
2023-02-19T22:20:31.892Z,5.73
2023-02-19T22:22:58.639Z,5.77
2023-02-19T22:25:25.311Z,5.72
2023-02-19T22:27:52.247Z,5.78
2023-02-19T22:30:19.070Z,5.78
2023-02-19T22:32:45.714Z,5.80
2023-02-19T22:35:14.246Z,5.78
2023-02-19T22:37:42.841Z,5.65
2023-02-19T22:40:09.939Z,5.69
2023-02-19T22:42:38.020Z,5.80
2023-02-19T22:45:06.206Z,5.75
2023-02-19T22:47:32.823Z,5.75
2023-02-19T22:49:59.589Z,5.73
2023-02-19T22:52:28.091Z,5.67
2023-02-19T22:54:55.983Z,5.73
2023-02-19T22:57:23.090Z,5.62
2023-02-19T22:59:49.749Z,5.71
2023-02-19T23:02:16.428Z,5.68
2023-02-19T23:04:43.422Z,5.67
2023-02-19T23:07:10.883Z,5.58
2023-02-19T23:09:37.510Z,5.50
2023-02-19T23:12:09.716Z,5.46
2023-02-19T23:14:36.392Z,5.43
2023-02-19T23:17:03.442Z,5.38
2023-02-19T23:19:30.696Z,5.33
2023-02-19T23:21:57.679Z,5.33
2023-02-19T23:24:24.840Z,5.31
2023-02-19T23:26:53.669Z,5.28
2023-02-19T23:29:26.345Z,5.19
2023-02-19T23:31:55.017Z,5.08
2023-02-19T23:34:22.050Z,5.03
2023-02-19T23:36:50.768Z,4.98
2023-02-19T23:39:20.312Z,4.87
2023-02-19T23:41:52.467Z,4.80
2023-02-19T23:44:20.510Z,4.74
2023-02-19T23:46:48.186Z,4.67
2023-02-19T23:49:14.805Z,4.61
2023-02-19T23:51:41.844Z,4.51
2023-02-19T23:54:08.896Z,4.43
2023-02-19T23:56:35.975Z,4.34
2023-02-19T23:59:02.828Z,4.22
